sensor_id;sensor_type;location;lat;lon;timestamp;P1;durP1;ratioP1;P2;durP2;ratioP2
19364;SDS011;9818;48.382;10.850;2024-03-23T00:52:46;3.40;;;1.73;;
19364;SDS011;9818;48.382;10.850;2024-03-23T00:55:13;3.07;;;1.90;;
19364;SDS011;9818;48.382;10.850;2024-03-23T00:57:39;2.37;;;1.77;;
19364;SDS011;9818;48.382;10.850;2024-03-23T01:00:05;2.50;;;1.67;;
19364;SDS011;9818;48.382;10.850;2024-03-23T01:02:32;2.30;;;1.80;;
19364;SDS011;9818;48.382;10.850;2024-03-23T01:04:58;1.73;;;1.60;;
19364;SDS011;9818;48.382;10.850;2024-03-23T01:07:24;2.63;;;1.60;;
19364;SDS011;9818;48.382;10.850;2024-03-23T01:09:53;3.13;;;1.57;;
19364;SDS011;9818;48.382;10.850;2024-03-23T01:12:19;2.93;;;1.80;;
19364;SDS011;9818;48.382;10.850;2024-03-23T01:14:45;2.13;;;1.80;;
19364;SDS011;9818;48.382;10.850;2024-03-23T01:17:12;3.00;;;1.70;;
19364;SDS011;9818;48.382;10.850;2024-03-23T01:19:38;3.53;;;1.80;;
19364;SDS011;9818;48.382;10.850;2024-03-23T01:22:04;1.73;;;1.33;;
19364;SDS011;9818;48.382;10.850;2024-03-23T01:24:30;2.13;;;1.30;;
19364;SDS011;9818;48.382;10.850;2024-03-23T01:26:59;2.70;;;1.60;;
19364;SDS011;9818;48.382;10.850;2024-03-23T01:29:25;1.93;;;1.60;;
19364;SDS011;9818;48.382;10.850;2024-03-23T01:31:51;2.40;;;2.00;;
19364;SDS011;9818;48.382;10.850;2024-03-23T01:34:18;2.23;;;1.53;;
19364;SDS011;9818;48.382;10.850;2024-03-23T01:36:44;2.17;;;1.60;;
19364;SDS011;9818;48.382;10.850;2024-03-23T01:39:10;2.33;;;1.73;;
19364;SDS011;9818;48.382;10.850;2024-03-23T01:41:37;2.33;;;1.80;;
19364;SDS011;9818;48.382;10.850;2024-03-23T01:44:06;1.97;;;1.60;;
19364;SDS011;9818;48.382;10.850;2024-03-23T01:46:32;2.27;;;1.83;;
19364;SDS011;9818;48.382;10.850;2024-03-23T01:48:58;2.77;;;1.50;;
19364;SDS011;9818;48.382;10.850;2024-03-23T01:51:25;2.93;;;1.70;;
19364;SDS011;9818;48.382;10.850;2024-03-23T01:53:52;2.97;;;1.53;;
19364;SDS011;9818;48.382;10.850;2024-03-23T01:56:19;2.80;;;1.80;;
19364;SDS011;9818;48.382;10.850;2024-03-23T01:58:46;2.57;;;1.80;;
19364;SDS011;9818;48.382;10.850;2024-03-23T02:01:14;3.20;;;1.80;;
19364;SDS011;9818;48.382;10.850;2024-03-23T02:03:41;2.17;;;1.40;;
19364;SDS011;9818;48.382;10.850;2024-03-23T02:06:07;3.03;;;1.50;;
19364;SDS011;9818;48.382;10.850;2024-03-23T02:08:34;1.57;;;1.47;;
19364;SDS011;9818;48.382;10.850;2024-03-23T02:11:00;2.70;;;1.40;;
19364;SDS011;9818;48.382;10.850;2024-03-23T02:13:26;2.10;;;1.47;;
19364;SDS011;9818;48.382;10.850;2024-03-23T02:15:52;1.87;;;1.53;;
19364;SDS011;9818;48.382;10.850;2024-03-23T02:18:21;1.90;;;1.50;;
19364;SDS011;9818;48.382;10.850;2024-03-23T02:20:47;2.43;;;1.60;;
19364;SDS011;9818;48.382;10.850;2024-03-23T02:23:16;2.03;;;1.50;;
19364;SDS011;9818;48.382;10.850;2024-03-23T02:25:43;1.67;;;1.43;;
19364;SDS011;9818;48.382;10.850;2024-03-23T02:28:09;2.80;;;1.40;;
19364;SDS011;9818;48.382;10.850;2024-03-23T02:30:35;2.13;;;1.40;;
19364;SDS011;9818;48.382;10.850;2024-03-23T02:33:02;2.50;;;1.50;;
19364;SDS011;9818;48.382;10.850;2024-03-23T02:35:28;2.50;;;1.60;;
19364;SDS011;9818;48.382;10.850;2024-03-23T02:37:55;2.10;;;1.50;;
19364;SDS011;9818;48.382;10.850;2024-03-23T02:40:24;2.07;;;1.40;;
19364;SDS011;9818;48.382;10.850;2024-03-23T02:42:50;3.00;;;1.80;;
19364;SDS011;9818;48.382;10.850;2024-03-23T02:45:16;1.67;;;1.53;;
19364;SDS011;9818;48.382;10.850;2024-03-23T02:47:42;1.93;;;1.50;;
19364;SDS011;9818;48.382;10.850;2024-03-23T02:50:09;2.43;;;1.37;;
19364;SDS011;9818;48.382;10.850;2024-03-23T02:52:35;1.67;;;1.40;;
19364;SDS011;9818;48.382;10.850;2024-03-23T02:55:01;2.07;;;1.60;;
19364;SDS011;9818;48.382;10.850;2024-03-23T02:57:31;2.33;;;1.60;;
19364;SDS011;9818;48.382;10.850;2024-03-23T02:59:57;1.60;;;1.40;;
19364;SDS011;9818;48.382;10.850;2024-03-23T03:02:23;1.60;;;1.30;;
19364;SDS011;9818;48.382;10.850;2024-03-23T03:04:49;2.43;;;1.50;;
19364;SDS011;9818;48.382;10.850;2024-03-23T03:07:15;2.03;;;1.57;;
19364;SDS011;9818;48.382;10.850;2024-03-23T03:09:41;2.10;;;1.50;;
19364;SDS011;9818;48.382;10.850;2024-03-23T03:12:08;1.60;;;1.30;;
19364;SDS011;9818;48.382;10.850;2024-03-23T03:14:36;1.87;;;1.50;;
19364;SDS011;9818;48.382;10.850;2024-03-23T03:17:03;2.53;;;1.50;;
19364;SDS011;9818;48.382;10.850;2024-03-23T03:19:29;2.13;;;1.40;;
19364;SDS011;9818;48.382;10.850;2024-03-23T03:21:55;1.97;;;1.30;;
19364;SDS011;9818;48.382;10.850;2024-03-23T03:24:21;2.27;;;1.40;;
19364;SDS011;9818;48.382;10.850;2024-03-23T03:26:48;1.47;;;1.30;;
19364;SDS011;9818;48.382;10.850;2024-03-23T03:29:15;1.93;;;1.50;;
19364;SDS011;9818;48.382;10.850;2024-03-23T03:31:44;2.40;;;1.60;;
19364;SDS011;9818;48.382;10.850;2024-03-23T03:34:10;1.70;;;1.60;;
19364;SDS011;9818;48.382;10.850;2024-03-23T03:36:36;1.90;;;1.50;;
19364;SDS011;9818;48.382;10.850;2024-03-23T03:39:02;1.60;;;1.50;;
19364;SDS011;9818;48.382;10.850;2024-03-23T03:41:28;2.07;;;1.30;;
19364;SDS011;9818;48.382;10.850;2024-03-23T03:43:55;2.10;;;1.30;;
19364;SDS011;9818;48.382;10.850;2024-03-23T03:46:21;1.63;;;1.40;;
19364;SDS011;9818;48.382;10.850;2024-03-23T03:48:50;1.70;;;1.30;;
19364;SDS011;9818;48.382;10.850;2024-03-23T03:51:16;2.10;;;1.47;;
19364;SDS011;9818;48.382;10.850;2024-03-23T03:53:42;1.63;;;1.40;;
19364;SDS011;9818;48.382;10.850;2024-03-23T03:56:08;3.10;;;1.60;;
19364;SDS011;9818;48.382;10.850;2024-03-23T03:58:34;1.27;;;1.17;;
19364;SDS011;9818;48.382;10.850;2024-03-23T04:01:00;1.57;;;1.23;;
19364;SDS011;9818;48.382;10.850;2024-03-23T04:03:27;1.70;;;1.50;;
19364;SDS011;9818;48.382;10.850;2024-03-23T04:05:55;1.77;;;1.37;;
19364;SDS011;9818;48.382;10.850;2024-03-23T04:08:22;1.73;;;1.40;;
19364;SDS011;9818;48.382;10.850;2024-03-23T04:10:48;1.73;;;1.53;;
19364;SDS011;9818;48.382;10.850;2024-03-23T04:13:14;2.50;;;1.70;;
19364;SDS011;9818;48.382;10.850;2024-03-23T04:15:40;1.93;;;1.50;;
19364;SDS011;9818;48.382;10.850;2024-03-23T04:18:07;2.33;;;1.43;;
19364;SDS011;9818;48.382;10.850;2024-03-23T04:20:33;1.53;;;1.40;;
19364;SDS011;9818;48.382;10.850;2024-03-23T04:23:02;1.40;;;1.30;;
19364;SDS011;9818;48.382;10.850;2024-03-23T04:25:28;1.93;;;1.50;;
19364;SDS011;9818;48.382;10.850;2024-03-23T04:27:54;2.13;;;1.40;;
19364;SDS011;9818;48.382;10.850;2024-03-23T04:30:21;1.90;;;1.40;;
19364;SDS011;9818;48.382;10.850;2024-03-23T04:32:47;1.87;;;1.30;;
19364;SDS011;9818;48.382;10.850;2024-03-23T04:35:13;1.87;;;1.30;;
19364;SDS011;9818;48.382;10.850;2024-03-23T04:37:39;1.60;;;1.40;;
19364;SDS011;9818;48.382;10.850;2024-03-23T04:40:09;2.03;;;1.40;;
19364;SDS011;9818;48.382;10.850;2024-03-23T04:42:36;2.40;;;1.50;;
19364;SDS011;9818;48.382;10.850;2024-03-23T04:45:02;1.60;;;1.40;;
19364;SDS011;9818;48.382;10.850;2024-03-23T04:47:29;1.40;;;1.20;;
19364;SDS011;9818;48.382;10.850;2024-03-23T04:49:55;1.40;;;1.30;;
19364;SDS011;9818;48.382;10.850;2024-03-23T04:52:21;1.47;;;1.20;;
19364;SDS011;9818;48.382;10.850;2024-03-23T04:54:47;1.50;;;1.20;;
19364;SDS011;9818;48.382;10.850;2024-03-23T04:57:16;1.70;;;1.40;;
19364;SDS011;9818;48.382;10.850;2024-03-23T04:59:42;1.50;;;1.13;;
19364;SDS011;9818;48.382;10.850;2024-03-23T05:02:08;1.67;;;1.40;;
19364;SDS011;9818;48.382;10.850;2024-03-23T05:04:35;1.30;;;1.20;;
19364;SDS011;9818;48.382;10.850;2024-03-23T05:07:02;1.87;;;1.40;;
19364;SDS011;9818;48.382;10.850;2024-03-23T05:09:28;1.47;;;1.30;;
19364;SDS011;9818;48.382;10.850;2024-03-23T05:11:55;1.67;;;1.40;;
19364;SDS011;9818;48.382;10.850;2024-03-23T05:14:24;1.57;;;1.30;;
19364;SDS011;9818;48.382;10.850;2024-03-23T05:16:50;1.30;;;1.20;;
19364;SDS011;9818;48.382;10.850;2024-03-23T05:19:16;1.37;;;1.27;;
19364;SDS011;9818;48.382;10.850;2024-03-23T05:21:42;1.70;;;1.40;;
19364;SDS011;9818;48.382;10.850;2024-03-23T05:24:09;1.43;;;1.13;;
19364;SDS011;9818;48.382;10.850;2024-03-23T05:26:35;2.33;;;1.20;;
19364;SDS011;9818;48.382;10.850;2024-03-23T05:29:01;1.93;;;1.30;;
19364;SDS011;9818;48.382;10.850;2024-03-23T05:31:31;1.50;;;1.17;;
19364;SDS011;9818;48.382;10.850;2024-03-23T05:33:58;1.93;;;1.40;;
19364;SDS011;9818;48.382;10.850;2024-03-23T05:36:24;1.70;;;1.57;;
19364;SDS011;9818;48.382;10.850;2024-03-23T05:38:50;1.50;;;1.30;;
19364;SDS011;9818;48.382;10.850;2024-03-23T05:41:16;1.40;;;1.20;;
19364;SDS011;9818;48.382;10.850;2024-03-23T05:43:43;1.50;;;1.20;;
19364;SDS011;9818;48.382;10.850;2024-03-23T05:46:09;1.47;;;1.37;;
19364;SDS011;9818;48.382;10.850;2024-03-23T05:48:38;1.23;;;1.10;;
19364;SDS011;9818;48.382;10.850;2024-03-23T05:51:04;1.37;;;1.27;;
19364;SDS011;9818;48.382;10.850;2024-03-23T05:53:30;1.53;;;1.20;;
19364;SDS011;9818;48.382;10.850;2024-03-23T05:56:00;2.63;;;1.60;;
19364;SDS011;9818;48.382;10.850;2024-03-23T05:58:29;1.30;;;1.20;;
19364;SDS011;9818;48.382;10.850;2024-03-23T06:00:56;1.40;;;1.20;;
19364;SDS011;9818;48.382;10.850;2024-03-23T06:03:23;1.30;;;1.20;;
19364;SDS011;9818;48.382;10.850;2024-03-23T06:05:53;1.33;;;1.20;;
19364;SDS011;9818;48.382;10.850;2024-03-23T06:08:19;1.23;;;1.13;;
19364;SDS011;9818;48.382;10.850;2024-03-23T06:10:45;1.60;;;1.50;;
19364;SDS011;9818;48.382;10.850;2024-03-23T06:13:11;1.70;;;1.50;;
19364;SDS011;9818;48.382;10.850;2024-03-23T06:15:38;1.27;;;1.17;;
19364;SDS011;9818;48.382;10.850;2024-03-23T06:18:04;1.83;;;1.30;;
19364;SDS011;9818;48.382;10.850;2024-03-23T06:20:31;1.37;;;1.27;;
19364;SDS011;9818;48.382;10.850;2024-03-23T06:22:59;2.00;;;1.30;;
19364;SDS011;9818;48.382;10.850;2024-03-23T06:25:26;1.97;;;1.50;;
19364;SDS011;9818;48.382;10.850;2024-03-23T06:27:52;1.80;;;1.70;;
19364;SDS011;9818;48.382;10.850;2024-03-23T06:30:18;1.47;;;1.30;;
19364;SDS011;9818;48.382;10.850;2024-03-23T06:32:44;1.43;;;1.20;;
19364;SDS011;9818;48.382;10.850;2024-03-23T06:35:11;1.47;;;1.27;;
19364;SDS011;9818;48.382;10.850;2024-03-23T06:37:37;1.53;;;1.40;;
19364;SDS011;9818;48.382;10.850;2024-03-23T06:40:07;1.53;;;1.40;;
19364;SDS011;9818;48.382;10.850;2024-03-23T06:42:34;1.47;;;1.37;;
19364;SDS011;9818;48.382;10.850;2024-03-23T06:45:00;1.43;;;1.20;;
19364;SDS011;9818;48.382;10.850;2024-03-23T06:47:26;1.43;;;1.33;;
19364;SDS011;9818;48.382;10.850;2024-03-23T06:49:52;1.47;;;1.37;;
19364;SDS011;9818;48.382;10.850;2024-03-23T06:52:18;1.73;;;1.30;;
19364;SDS011;9818;48.382;10.850;2024-03-23T06:54:45;1.80;;;1.50;;
19364;SDS011;9818;48.382;10.850;2024-03-23T06:57:13;1.40;;;1.30;;
19364;SDS011;9818;48.382;10.850;2024-03-23T06:59:40;1.40;;;1.30;;
19364;SDS011;9818;48.382;10.850;2024-03-23T07:02:06;1.97;;;1.50;;
19364;SDS011;9818;48.382;10.850;2024-03-23T07:04:32;1.50;;;1.13;;
19364;SDS011;9818;48.382;10.850;2024-03-23T07:06:58;2.43;;;1.27;;
19364;SDS011;9818;48.382;10.850;2024-03-23T07:09:24;1.90;;;1.30;;
19364;SDS011;9818;48.382;10.850;2024-03-23T07:11:53;1.63;;;1.30;;
19364;SDS011;9818;48.382;10.850;2024-03-23T07:14:22;1.37;;;1.20;;
19364;SDS011;9818;48.382;10.850;2024-03-23T07:16:49;2.73;;;1.50;;
19364;SDS011;9818;48.382;10.850;2024-03-23T07:19:15;1.47;;;1.27;;
19364;SDS011;9818;48.382;10.850;2024-03-23T07:21:42;1.20;;;1.10;;
19364;SDS011;9818;48.382;10.850;2024-03-23T07:24:08;1.30;;;1.20;;
19364;SDS011;9818;48.382;10.850;2024-03-23T07:26:34;1.40;;;1.30;;
19364;SDS011;9818;48.382;10.850;2024-03-23T07:29:01;1.33;;;1.23;;
19364;SDS011;9818;48.382;10.850;2024-03-23T07:31:30;1.33;;;1.23;;
19364;SDS011;9818;48.382;10.850;2024-03-23T07:33:56;1.60;;;1.50;;
19364;SDS011;9818;48.382;10.850;2024-03-23T07:36:22;1.50;;;1.40;;
19364;SDS011;9818;48.382;10.850;2024-03-23T07:38:48;1.70;;;1.27;;
19364;SDS011;9818;48.382;10.850;2024-03-23T07:41:15;1.20;;;1.10;;
19364;SDS011;9818;48.382;10.850;2024-03-23T07:43:43;1.30;;;1.20;;
19364;SDS011;9818;48.382;10.850;2024-03-23T07:46:09;1.77;;;1.37;;
19364;SDS011;9818;48.382;10.850;2024-03-23T07:48:38;1.40;;;1.30;;
19364;SDS011;9818;48.382;10.850;2024-03-23T07:51:05;1.73;;;1.53;;
19364;SDS011;9818;48.382;10.850;2024-03-23T07:53:32;1.83;;;1.30;;
19364;SDS011;9818;48.382;10.850;2024-03-23T07:56:00;1.43;;;1.33;;
19364;SDS011;9818;48.382;10.850;2024-03-23T07:58:27;1.47;;;1.30;;
19364;SDS011;9818;48.382;10.850;2024-03-23T08:00:54;1.33;;;1.23;;
19364;SDS011;9818;48.382;10.850;2024-03-23T08:03:20;1.73;;;1.40;;
19364;SDS011;9818;48.382;10.850;2024-03-23T08:05:49;1.30;;;1.20;;
19364;SDS011;9818;48.382;10.850;2024-03-23T08:08:16;1.40;;;1.30;;
19364;SDS011;9818;48.382;10.850;2024-03-23T08:10:49;1.53;;;1.20;;
19364;SDS011;9818;48.382;10.850;2024-03-23T08:13:16;1.50;;;1.40;;
19364;SDS011;9818;48.382;10.850;2024-03-23T08:15:42;1.50;;;1.40;;
19364;SDS011;9818;48.382;10.850;2024-03-23T08:18:09;1.60;;;1.20;;
19364;SDS011;9818;48.382;10.850;2024-03-23T08:20:36;1.33;;;1.23;;
19364;SDS011;9818;48.382;10.850;2024-03-23T08:23:05;1.33;;;1.23;;
19364;SDS011;9818;48.382;10.850;2024-03-23T08:25:31;1.10;;;1.00;;
19364;SDS011;9818;48.382;10.850;2024-03-23T08:27:58;1.30;;;1.20;;
19364;SDS011;9818;48.382;10.850;2024-03-23T08:30:24;3.97;;;1.23;;
19364;SDS011;9818;48.382;10.850;2024-03-23T08:32:51;1.67;;;1.20;;
19364;SDS011;9818;48.382;10.850;2024-03-23T08:35:17;1.90;;;1.20;;
19364;SDS011;9818;48.382;10.850;2024-03-23T08:37:43;1.20;;;1.10;;
19364;SDS011;9818;48.382;10.850;2024-03-23T08:40:12;2.43;;;1.00;;
19364;SDS011;9818;48.382;10.850;2024-03-23T08:42:39;2.23;;;1.30;;
19364;SDS011;9818;48.382;10.850;2024-03-23T08:45:05;2.30;;;1.20;;
19364;SDS011;9818;48.382;10.850;2024-03-23T08:47:33;1.20;;;1.10;;
19364;SDS011;9818;48.382;10.850;2024-03-23T08:50:00;1.20;;;1.10;;
19364;SDS011;9818;48.382;10.850;2024-03-23T08:52:26;2.40;;;1.27;;
19364;SDS011;9818;48.382;10.850;2024-03-23T08:54:53;2.03;;;1.30;;
19364;SDS011;9818;48.382;10.850;2024-03-23T08:57:22;2.03;;;1.40;;
19364;SDS011;9818;48.382;10.850;2024-03-23T08:59:48;2.33;;;1.20;;
19364;SDS011;9818;48.382;10.850;2024-03-23T09:02:15;1.13;;;1.03;;
19364;SDS011;9818;48.382;10.850;2024-03-23T09:04:41;1.30;;;1.03;;
19364;SDS011;9818;48.382;10.850;2024-03-23T09:07:07;1.00;;;0.90;;
19364;SDS011;9818;48.382;10.850;2024-03-23T09:09:33;1.20;;;1.10;;
19364;SDS011;9818;48.382;10.850;2024-03-23T09:11:59;1.10;;;1.00;;
19364;SDS011;9818;48.382;10.850;2024-03-23T09:14:28;2.07;;;1.17;;
19364;SDS011;9818;48.382;10.850;2024-03-23T09:16:55;1.47;;;1.10;;
19364;SDS011;9818;48.382;10.850;2024-03-23T09:19:21;1.70;;;0.93;;
19364;SDS011;9818;48.382;10.850;2024-03-23T09:21:47;1.37;;;1.03;;
19364;SDS011;9818;48.382;10.850;2024-03-23T09:24:14;2.00;;;1.30;;
19364;SDS011;9818;48.382;10.850;2024-03-23T09:26:40;1.10;;;1.00;;
19364;SDS011;9818;48.382;10.850;2024-03-23T09:29:06;1.40;;;1.07;;
19364;SDS011;9818;48.382;10.850;2024-03-23T09:31:35;1.00;;;0.90;;
19364;SDS011;9818;48.382;10.850;2024-03-23T09:34:02;1.13;;;1.10;;
19364;SDS011;9818;48.382;10.850;2024-03-23T09:36:28;2.50;;;1.03;;
19364;SDS011;9818;48.382;10.850;2024-03-23T09:38:54;1.40;;;1.30;;
19364;SDS011;9818;48.382;10.850;2024-03-23T09:41:20;3.17;;;1.40;;
19364;SDS011;9818;48.382;10.850;2024-03-23T09:43:46;1.20;;;1.10;;
19364;SDS011;9818;48.382;10.850;2024-03-23T09:46:13;1.20;;;1.10;;
19364;SDS011;9818;48.382;10.850;2024-03-23T09:48:42;1.83;;;0.93;;
19364;SDS011;9818;48.382;10.850;2024-03-23T09:51:11;0.90;;;0.90;;
19364;SDS011;9818;48.382;10.850;2024-03-23T09:53:37;1.57;;;1.00;;
19364;SDS011;9818;48.382;10.850;2024-03-23T09:56:04;2.20;;;1.10;;
19364;SDS011;9818;48.382;10.850;2024-03-23T09:58:30;3.20;;;1.20;;
19364;SDS011;9818;48.382;10.850;2024-03-23T10:00:57;2.93;;;1.20;;
19364;SDS011;9818;48.382;10.850;2024-03-23T10:03:23;1.77;;;1.30;;
19364;SDS011;9818;48.382;10.850;2024-03-23T10:06:00;1.67;;;1.30;;
19364;SDS011;9818;48.382;10.850;2024-03-23T10:08:28;3.03;;;1.07;;
19364;SDS011;9818;48.382;10.850;2024-03-23T10:10:55;2.23;;;1.00;;
19364;SDS011;9818;48.382;10.850;2024-03-23T10:13:25;1.17;;;1.00;;
19364;SDS011;9818;48.382;10.850;2024-03-23T10:15:55;2.23;;;1.00;;
19364;SDS011;9818;48.382;10.850;2024-03-23T10:18:22;2.07;;;0.90;;
19364;SDS011;9818;48.382;10.850;2024-03-23T10:20:50;1.47;;;1.00;;
19364;SDS011;9818;48.382;10.850;2024-03-23T10:23:20;1.60;;;1.00;;
19364;SDS011;9818;48.382;10.850;2024-03-23T10:25:48;2.80;;;1.00;;
19364;SDS011;9818;48.382;10.850;2024-03-23T10:28:14;2.10;;;1.10;;
19364;SDS011;9818;48.382;10.850;2024-03-23T10:30:40;1.47;;;0.93;;
19364;SDS011;9818;48.382;10.850;2024-03-23T10:33:07;4.60;;;1.47;;
19364;SDS011;9818;48.382;10.850;2024-03-23T10:35:34;4.03;;;1.30;;
19364;SDS011;9818;48.382;10.850;2024-03-23T10:38:00;1.77;;;1.20;;
19364;SDS011;9818;48.382;10.850;2024-03-23T10:40:30;2.63;;;1.00;;
19364;SDS011;9818;48.382;10.850;2024-03-23T10:42:57;1.00;;;0.90;;
19364;SDS011;9818;48.382;10.850;2024-03-23T10:45:24;1.20;;;1.10;;
19364;SDS011;9818;48.382;10.850;2024-03-23T10:47:50;1.17;;;0.80;;
19364;SDS011;9818;48.382;10.850;2024-03-23T10:50:17;3.97;;;1.00;;
19364;SDS011;9818;48.382;10.850;2024-03-23T10:52:45;1.13;;;1.03;;
19364;SDS011;9818;48.382;10.850;2024-03-23T10:55:13;2.00;;;0.90;;
19364;SDS011;9818;48.382;10.850;2024-03-23T10:57:45;1.20;;;0.97;;
19364;SDS011;9818;48.382;10.850;2024-03-23T11:00:16;1.30;;;1.00;;
19364;SDS011;9818;48.382;10.850;2024-03-23T11:02:42;1.47;;;0.90;;
19364;SDS011;9818;48.382;10.850;2024-03-23T11:07:53;1.47;;;1.10;;
19364;SDS011;9818;48.382;10.850;2024-03-23T11:10:26;1.80;;;0.93;;
19364;SDS011;9818;48.382;10.850;2024-03-23T11:12:56;2.20;;;1.10;;
19364;SDS011;9818;48.382;10.850;2024-03-23T11:15:23;1.10;;;1.00;;
19364;SDS011;9818;48.382;10.850;2024-03-23T11:18:05;1.53;;;1.00;;
19364;SDS011;9818;48.382;10.850;2024-03-23T11:20:33;1.47;;;1.13;;
19364;SDS011;9818;48.382;10.850;2024-03-23T11:23:00;1.53;;;1.03;;
19364;SDS011;9818;48.382;10.850;2024-03-23T11:25:27;2.57;;;1.43;;
19364;SDS011;9818;48.382;10.850;2024-03-23T11:27:57;1.10;;;1.00;;
19364;SDS011;9818;48.382;10.850;2024-03-23T11:30:34;2.03;;;1.20;;
19364;SDS011;9818;48.382;10.850;2024-03-23T11:33:00;1.27;;;0.90;;
19364;SDS011;9818;48.382;10.850;2024-03-23T11:35:28;2.60;;;1.03;;
19364;SDS011;9818;48.382;10.850;2024-03-23T11:38:05;2.87;;;1.20;;
19364;SDS011;9818;48.382;10.850;2024-03-23T11:40:33;0.80;;;0.80;;
19364;SDS011;9818;48.382;10.850;2024-03-23T11:43:03;2.87;;;1.00;;
19364;SDS011;9818;48.382;10.850;2024-03-23T11:45:33;3.13;;;1.00;;
19364;SDS011;9818;48.382;10.850;2024-03-23T11:48:07;0.93;;;0.90;;
19364;SDS011;9818;48.382;10.850;2024-03-23T11:50:35;1.57;;;0.90;;
19364;SDS011;9818;48.382;10.850;2024-03-23T11:53:06;1.13;;;0.90;;
19364;SDS011;9818;48.382;10.850;2024-03-23T11:55:38;1.30;;;1.20;;
19364;SDS011;9818;48.382;10.850;2024-03-23T11:58:09;1.83;;;1.13;;
19364;SDS011;9818;48.382;10.850;2024-03-23T12:00:35;1.53;;;1.00;;
19364;SDS011;9818;48.382;10.850;2024-03-23T12:03:02;1.10;;;1.00;;
19364;SDS011;9818;48.382;10.850;2024-03-23T12:05:28;1.20;;;1.10;;
19364;SDS011;9818;48.382;10.850;2024-03-23T12:07:55;1.10;;;1.00;;
19364;SDS011;9818;48.382;10.850;2024-03-23T12:10:40;1.60;;;1.30;;
19364;SDS011;9818;48.382;10.850;2024-03-23T12:13:09;3.47;;;1.60;;
19364;SDS011;9818;48.382;10.850;2024-03-23T12:15:35;2.47;;;1.30;;
19364;SDS011;9818;48.382;10.850;2024-03-23T12:18:08;2.47;;;1.20;;
19364;SDS011;9818;48.382;10.850;2024-03-23T12:20:34;6.00;;;1.80;;
19364;SDS011;9818;48.382;10.850;2024-03-23T12:23:07;2.67;;;1.30;;
19364;SDS011;9818;48.382;10.850;2024-03-23T12:25:34;2.10;;;1.07;;
19364;SDS011;9818;48.382;10.850;2024-03-23T12:28:00;2.80;;;1.50;;
19364;SDS011;9818;48.382;10.850;2024-03-23T12:30:29;2.57;;;1.30;;
19364;SDS011;9818;48.382;10.850;2024-03-23T12:32:55;4.53;;;1.37;;
19364;SDS011;9818;48.382;10.850;2024-03-23T12:35:22;1.93;;;1.10;;
19364;SDS011;9818;48.382;10.850;2024-03-23T12:37:48;2.00;;;1.20;;
19364;SDS011;9818;48.382;10.850;2024-03-23T12:40:14;2.30;;;1.30;;
19364;SDS011;9818;48.382;10.850;2024-03-23T12:42:40;2.27;;;1.20;;
19364;SDS011;9818;48.382;10.850;2024-03-23T12:45:07;1.43;;;1.00;;
19364;SDS011;9818;48.382;10.850;2024-03-23T12:47:36;3.60;;;1.43;;
19364;SDS011;9818;48.382;10.850;2024-03-23T12:50:03;2.07;;;1.10;;
19364;SDS011;9818;48.382;10.850;2024-03-23T12:52:30;1.67;;;0.93;;
19364;SDS011;9818;48.382;10.850;2024-03-23T12:54:56;2.40;;;1.20;;
19364;SDS011;9818;48.382;10.850;2024-03-23T12:57:23;3.90;;;1.30;;
19364;SDS011;9818;48.382;10.850;2024-03-23T12:59:49;2.40;;;1.27;;
19364;SDS011;9818;48.382;10.850;2024-03-23T13:02:16;2.37;;;1.03;;
19364;SDS011;9818;48.382;10.850;2024-03-23T13:04:45;3.47;;;1.30;;
19364;SDS011;9818;48.382;10.850;2024-03-23T13:07:12;2.40;;;1.40;;
19364;SDS011;9818;48.382;10.850;2024-03-23T13:09:38;2.53;;;1.10;;
19364;SDS011;9818;48.382;10.850;2024-03-23T13:12:05;1.33;;;0.97;;
19364;SDS011;9818;48.382;10.850;2024-03-23T13:14:32;1.30;;;1.07;;
19364;SDS011;9818;48.382;10.850;2024-03-23T13:16:58;1.90;;;1.00;;
19364;SDS011;9818;48.382;10.850;2024-03-23T13:19:25;5.30;;;1.10;;
19364;SDS011;9818;48.382;10.850;2024-03-23T13:21:54;2.73;;;1.10;;
19364;SDS011;9818;48.382;10.850;2024-03-23T13:24:21;1.17;;;1.00;;
19364;SDS011;9818;48.382;10.850;2024-03-23T13:26:49;1.73;;;1.00;;
19364;SDS011;9818;48.382;10.850;2024-03-23T13:29:16;1.27;;;0.90;;
19364;SDS011;9818;48.382;10.850;2024-03-23T13:31:42;1.60;;;1.10;;
19364;SDS011;9818;48.382;10.850;2024-03-23T13:34:08;3.07;;;1.40;;
19364;SDS011;9818;48.382;10.850;2024-03-23T13:36:34;0.80;;;0.80;;
19364;SDS011;9818;48.382;10.850;2024-03-23T13:39:03;1.10;;;0.90;;
19364;SDS011;9818;48.382;10.850;2024-03-23T13:41:30;3.13;;;1.10;;
19364;SDS011;9818;48.382;10.850;2024-03-23T13:43:56;1.77;;;1.07;;
19364;SDS011;9818;48.382;10.850;2024-03-23T13:46:22;3.00;;;1.00;;
19364;SDS011;9818;48.382;10.850;2024-03-23T13:48:48;1.90;;;0.87;;
19364;SDS011;9818;48.382;10.850;2024-03-23T13:51:14;1.73;;;1.00;;
19364;SDS011;9818;48.382;10.850;2024-03-23T13:53:48;2.10;;;1.30;;
19364;SDS011;9818;48.382;10.850;2024-03-23T13:56:17;1.40;;;1.10;;
19364;SDS011;9818;48.382;10.850;2024-03-23T13:58:43;1.33;;;1.10;;
19364;SDS011;9818;48.382;10.850;2024-03-23T14:01:10;1.00;;;0.90;;
19364;SDS011;9818;48.382;10.850;2024-03-23T14:03:36;1.30;;;0.90;;
19364;SDS011;9818;48.382;10.850;2024-03-23T14:06:03;3.67;;;1.37;;
19364;SDS011;9818;48.382;10.850;2024-03-23T14:08:29;0.80;;;0.80;;
19364;SDS011;9818;48.382;10.850;2024-03-23T14:10:56;1.23;;;0.80;;
19364;SDS011;9818;48.382;10.850;2024-03-23T14:13:25;0.97;;;0.87;;
19364;SDS011;9818;48.382;10.850;2024-03-23T14:15:52;1.40;;;0.77;;
19364;SDS011;9818;48.382;10.850;2024-03-23T14:18:18;1.27;;;1.10;;
19364;SDS011;9818;48.382;10.850;2024-03-23T14:20:44;1.57;;;0.90;;
19364;SDS011;9818;48.382;10.850;2024-03-23T14:23:10;1.00;;;0.87;;
19364;SDS011;9818;48.382;10.850;2024-03-23T14:25:37;0.93;;;0.80;;
19364;SDS011;9818;48.382;10.850;2024-03-23T14:28:03;1.33;;;1.10;;
19364;SDS011;9818;48.382;10.850;2024-03-23T14:30:32;1.37;;;0.87;;
19364;SDS011;9818;48.382;10.850;2024-03-23T14:32:58;1.33;;;1.03;;
19364;SDS011;9818;48.382;10.850;2024-03-23T14:35:24;1.23;;;0.80;;
19364;SDS011;9818;48.382;10.850;2024-03-23T14:37:51;2.13;;;0.80;;
19364;SDS011;9818;48.382;10.850;2024-03-23T14:40:17;0.80;;;0.70;;
19364;SDS011;9818;48.382;10.850;2024-03-23T14:42:43;1.30;;;0.97;;
19364;SDS011;9818;48.382;10.850;2024-03-23T14:45:09;1.43;;;0.80;;
19364;SDS011;9818;48.382;10.850;2024-03-23T14:47:38;0.90;;;0.80;;
19364;SDS011;9818;48.382;10.850;2024-03-23T14:50:04;2.17;;;0.90;;
19364;SDS011;9818;48.382;10.850;2024-03-23T14:52:31;0.93;;;0.70;;
19364;SDS011;9818;48.382;10.850;2024-03-23T14:54:58;1.37;;;0.80;;
19364;SDS011;9818;48.382;10.850;2024-03-23T14:57:24;1.13;;;0.90;;
19364;SDS011;9818;48.382;10.850;2024-03-23T14:59:50;1.47;;;0.70;;
19364;SDS011;9818;48.382;10.850;2024-03-23T15:02:17;0.97;;;0.87;;
19364;SDS011;9818;48.382;10.850;2024-03-23T15:04:45;1.37;;;0.90;;
19364;SDS011;9818;48.382;10.850;2024-03-23T15:07:12;1.20;;;0.90;;
19364;SDS011;9818;48.382;10.850;2024-03-23T15:09:38;2.67;;;0.97;;
19364;SDS011;9818;48.382;10.850;2024-03-23T15:12:04;0.70;;;0.70;;
19364;SDS011;9818;48.382;10.850;2024-03-23T15:14:31;0.80;;;0.80;;
19364;SDS011;9818;48.382;10.850;2024-03-23T15:16:57;1.67;;;0.90;;
19364;SDS011;9818;48.382;10.850;2024-03-23T15:19:23;1.57;;;1.00;;
19364;SDS011;9818;48.382;10.850;2024-03-23T15:21:53;0.80;;;0.80;;
19364;SDS011;9818;48.382;10.850;2024-03-23T15:24:19;1.20;;;0.90;;
19364;SDS011;9818;48.382;10.850;2024-03-23T15:26:45;1.13;;;0.70;;
19364;SDS011;9818;48.382;10.850;2024-03-23T15:29:11;1.20;;;0.80;;
19364;SDS011;9818;48.382;10.850;2024-03-23T15:31:38;2.10;;;0.90;;
19364;SDS011;9818;48.382;10.850;2024-03-23T15:34:04;1.20;;;0.67;;
19364;SDS011;9818;48.382;10.850;2024-03-23T15:36:30;1.37;;;0.90;;
19364;SDS011;9818;48.382;10.850;2024-03-23T15:38:59;0.80;;;0.80;;
19364;SDS011;9818;48.382;10.850;2024-03-23T15:41:25;0.97;;;0.80;;